• Join FlightAware (Why Join?)
  • Login
  • US Flag 
11:11AM EST


 

Airport Tracker/Info


-or-


 

Live Flight TrackerFlight Track Log ✈ UPS1219 ✈ 28-Mar-2014 ✈ KIAD - KSDF

Flight Track Log - Related Links

Times and Time Zones

All times are in EDT time to prevent confusion due to time zone crossing. See the UPS1219 flight status page for this flight to view local times or setup timezone preferences in your user account.

Time Position Orientation Groundspeed Altitude Reporting Facility
EDT Latitude Longitude Course Direction KTS MPH feet Rate Location/Type
10:55PM 38.9333 -77.5333 195° South 203 234 3,300  Level Potomac TRACON
10:57PM 38.9050 -77.7203 259° West 254 292 8,500 2,520 Climbing Washington Center
10:58PM 38.8928 -77.8158 261° West 266 306 11,300 3,000 Climbing Washington Center
10:59PM 38.8803 -77.9331 262° West 300 345 14,500 3,300 Climbing Washington Center
11:00PM 38.8271 -77.8793 195° South  Level FlightAware Approximate
11:00PM 38.8694 -78.0606 264° West 340 391 18,100  Level Washington Center
11:01PM 38.8561 -78.1961 263° West 368 423 21,400 3,180 Climbing Washington Center
11:02PM 38.8528 -78.3372 268° West 388 447 24,500 2,640 Climbing Washington Center
11:03PM 38.8394 -78.4619 262° West 394 453 26,700 2,280 Climbing Washington Center
11:04PM 38.8153 -78.6075 258° West 411 473 29,100 1,740 Climbing Washington Center
11:05PM 38.7906 -78.7506 258° West 411 473 30,200 1,440 Climbing Washington Center
11:06PM 38.7681 -78.8933 259° West 411 473 32,000 840 Climbing Washington Center
11:07PM 38.7456 -79.0253 258° West 401 461 32,000  Level Washington Center
11:08PM 38.7228 -79.1600 258° West 396 456 32,000  Level Washington Center
11:09PM 38.6992 -79.3186 259° West 401 461 32,000  Level Washington Center
11:10PM 38.6761 -79.4556 258° West 406 467 32,000  Level Washington Center
11:11PM 38.6531 -79.5928 258° West 406 467 32,000  Level Washington Center
11:12PM 38.6317 -79.7297 259° West 406 467 32,000  Level Washington Center
11:13PM 38.6147 -79.8564 260° West 411 473 32,000  Level Washington Center
11:14PM 38.5972 -79.9961 261° West 406 467 32,000  Level Washington Center
11:15PM 38.5775 -80.1331 260° West 406 467 32,000  Level Washington Center
11:16PM 38.5569 -80.2858 260° West 406 467 32,000  Level Washington Center
11:17PM 38.5417 -80.3911 260° West 398 458 32,000  Level Indianapolis Center
11:18PM 38.5214 -80.5433 260° West 398 458 32,000  Level Indianapolis Center
11:19PM 38.5028 -80.6819 260° West 397 457 32,000  Level Indianapolis Center
11:20PM 38.4839 -80.8208 260° West 397 457 32,000  Level Indianapolis Center
11:21PM 38.4647 -80.9597 260° West 396 456 32,000  Level Indianapolis Center
11:22PM 38.4447 -81.1028 260° West 396 456 32,000  Level Indianapolis Center
11:23PM 38.4258 -81.2383 260° West 396 456 32,000  Level Indianapolis Center
11:24PM 38.4036 -81.3767 258° West 396 456 32,000  Level Indianapolis Center
11:25PM 38.3772 -81.5133 256° West 395 455 32,000  Level Indianapolis Center
11:26PM 38.3503 -81.6494 256° West 394 453 32,000  Level Indianapolis Center
11:27PM 38.3236 -81.7853 256° West 393 452 32,000  Level Indianapolis Center
11:28PM 38.2972 -81.9203 256° West 392 451 32,000  Level Indianapolis Center
11:29PM 38.2706 -82.0550 256° West 392 451 32,000  Level Indianapolis Center
11:30PM 38.2386 -82.2153 256° West 391 450 32,000  Level Indianapolis Center
11:31PM 38.2119 -82.3481 256° West 389 448 32,000  Level Indianapolis Center
11:32PM 38.1850 -82.4806 256° West 388 447 32,000  Level Indianapolis Center
11:33PM 38.1611 -82.5978 256° West 387 445 32,000  Level Indianapolis Center
11:34PM 38.1344 -82.7297 256° West 387 445 32,000  Level Indianapolis Center
11:35PM 38.1025 -82.8847 255° West 388 447 32,000  Level Indianapolis Center
11:36PM 38.0747 -83.0189 255° West 390 449 32,000  Level Indianapolis Center
11:37PM 38.0467 -83.1531 255° West 392 451 32,000  Level Indianapolis Center
11:38PM 38.0183 -83.2878 255° West 394 453 32,000  Level Indianapolis Center
11:39PM 37.9900 -83.4228 255° West 395 455 32,000  Level Indianapolis Center
11:40PM 37.9611 -83.5575 255° West 396 456 32,000 -1,320 Level Indianapolis Center
11:46PM 37.8046 -84.2813 254° West 334 384 23,200 -1,620 Descending FlightAware ADS-B (KCVG)
11:46PM 37.8020 -84.2929 254° West 334 384 22,700 -2,160 Descending FlightAware ADS-B (KCVG)
11:49PM 37.7411 -84.5676 254° West 346 398 17,300 -2,100 Descending FlightAware ADS-B
11:50PM 37.7077 -84.7173 255° West 335 386 15,100 -1,920 Descending FlightAware ADS-B
11:51PM 37.6796 -84.8412 254° West 290 334 13,000 -1,860 Descending FlightAware ADS-B
11:52PM 37.6597 -84.9401 276° West 280 322 11,000 -1,440 Descending FlightAware ADS-B
11:53PM 37.7101 -85.0308 313° West 287 330 9,900 -1,080 Descending FlightAware ADS-B
11:54PM 37.7470 -85.1163 291° West 277 319 8,800 -1,200 Descending FlightAware ADS-B
11:55PM 37.7715 -85.1973 290° West 276 318 7,600 -1,320 Descending FlightAware ADS-B
11:56PM 37.7997 -85.2924 290° West 272 313 6,400 -1,260 Descending FlightAware ADS-B
11:58PM 37.8333 -85.4059 291° West 269 310 4,900 -1,020 Descending FlightAware ADS-B
11:59PM 37.8639 -85.5091 290° West 264 304 3,900 -480 Descending FlightAware ADS-B
12:00AM 37.8890 -85.5940 290° West 233 268 3,900  Level FlightAware ADS-B
12:00AM 37.8938 -85.6072 302° West 236 272 3,900 -780 Level FlightAware ADS-B (EPWR / WRO)
12:01AM 37.9343 -85.6544 317° Northwest 235 270 3,100 -540 Descending FlightAware ADS-B
12:02AM 37.9925 -85.6854 346° North 216 249 2,900 -300 Descending FlightAware ADS-B
12:03AM 38.0521 -85.7046 346° North 189 217 2,500 -720 Descending FlightAware ADS-B
12:04AM 38.1029 -85.7213 346° North 145 167 1,500 -840 Descending FlightAware ADS-B
12:05AM 38.1167 -85.7333 208° Southwest 134 154 1,200 -600 Descending Louisville TRACON
12:07AM 38.1667 -85.7333 208° Southwest  Level FlightAware Approximate
12:10AM 38.1667 -85.7333 208° Southwest  Level FlightAware Approximate